Flight Track Log - Related Links

Times and Time Zones

All times are in EST time to prevent confusion due to time zone crossing. See the EJA922 flight status page for this flight to view local times or setup timezone preferences in your user account.

Time Position Orientation Groundspeed Altitude Reporting Facility
EST Latitude Longitude Course Direction KTS MPH feet Rate Location/Type
Tue 06:57:38 PM 43.8336 -111.1325 321° Northwest 231 266 13,400  Level Salt Lake Center
Tue 06:58:39 PM 43.8928 -111.1856 327° Northwest 247 284 15,200 1,805 Climbing Salt Lake Center
Tue 06:59:41 PM 43.9650 -111.2906 314° West 319 367 17,100 2,341 Climbing Salt Lake Center
Tue 07:00:42 PM 43.9842 -111.4233 281° West 353 406 20,000 2,902 Climbing Salt Lake Center
Tue 07:01:43 PM 44.0058 -111.5836 281° West 372 428 23,000 2,537 Climbing Salt Lake Center
Tue 07:02:00 PM 44.0159 -111.7665 281° West  Level Estimated
Tue 07:02:45 PM 44.0250 -111.7264 281° West 386 444 25,200  Level Salt Lake Center
Tue 07:03:46 PM 44.0450 -111.8733 281° West 398 458 27,600 2,341 Climbing Salt Lake Center
Tue 07:04:48 PM 44.0692 -112.0517 281° West 413 475 30,000 2,049 Climbing Salt Lake Center
Tue 07:05:49 PM 44.0878 -112.2039 280° West 416 479 31,800 1,610 Climbing Salt Lake Center
Tue 07:06:51 PM 44.1169 -112.3631 284° West 437 503 33,300 1,610 Climbing Salt Lake Center
Tue 07:07:52 PM 44.1533 -112.5519 285° West 449 517 35,100 1,672 Climbing Salt Lake Center
Tue 07:08:53 PM 44.1822 -112.7133 284° West 449 517 36,700 1,366 Climbing Salt Lake Center
Tue 07:09:55 PM 44.2167 -112.9019 284° West 450 518 37,900 634 Climbing Salt Lake Center
Tue 07:10:56 PM 44.2483 -113.0628 285° West 450 518 38,000 541 Climbing Salt Lake Center
Tue 07:11:57 PM 44.2767 -113.2228 284° West 446 513 39,000 976 Climbing Salt Lake Center
Tue 07:12:59 PM 44.3103 -113.4106 284° West 446 513 40,000 488 Climbing Salt Lake Center
Tue 07:14:00 PM 44.3378 -113.5736 283° West 449 517 40,000  Level Salt Lake Center
Tue 07:15:01 PM 44.3719 -113.7633 284° West 451 519 40,000  Level Salt Lake Center
Tue 07:16:03 PM 44.3989 -113.9186 284° West 435 501 40,000  Level Salt Lake Center
Tue 07:17:04 PM 44.4244 -114.0728 283° West 425 489 40,000  Level Salt Lake Center
Tue 07:18:06 PM 44.4525 -114.2300 284° West 419 482 40,000  Level Salt Lake Center
Tue 07:19:07 PM 44.4786 -114.3919 283° West 425 489 40,000  Level Salt Lake Center
Tue 07:20:08 PM 44.5117 -114.5872 283° West 431 496 40,000  Level Salt Lake Center
Tue 07:21:10 PM 44.5631 -114.7389 295° West 431 496 40,000  Level Salt Lake Center
Tue 07:22:11 PM 44.6203 -114.8861 299° West 431 496 40,000  Level Salt Lake Center
Tue 07:23:13 PM 44.6778 -115.0333 299° West 432 497 40,000  Level Salt Lake Center
Tue 07:24:14 PM 44.7347 -115.1797 299° West 431 496 40,000  Level Salt Lake Center
Tue 07:25:15 PM 44.7908 -115.3269 298° West 430 495 40,000  Level Salt Lake Center
Tue 07:26:17 PM 44.8478 -115.4753 298° West 432 497 40,000  Level Salt Lake Center
Tue 07:27:18 PM 44.9031 -115.6242 298° West 432 497 40,000  Level Salt Lake Center
Tue 07:28:19 PM 44.9700 -115.8025 298° West 432 497 40,000  Level Salt Lake Center
Tue 07:29:21 PM 45.0256 -115.9503 298° West 431 496 40,000  Level Salt Lake Center
Tue 07:30:22 PM 45.0808 -116.0997 298° West 432 497 40,000  Level Salt Lake Center
Tue 07:31:23 PM 45.1367 -116.2486 298° West 431 496 40,000  Level Salt Lake Center
Tue 07:32:04 PM 45.1689 -116.3394 297° West 430 495 40,000  Level Seattle Center
Tue 07:33:05 PM 45.2253 -116.4892 298° West 432 497 40,000  Level Seattle Center
Tue 07:34:05 PM 45.2900 -116.6697 297° West 429 494 40,000  Level Seattle Center
Tue 07:35:06 PM 45.3453 -116.8206 298° West 431 496 40,000  Level Seattle Center
Tue 07:36:07 PM 45.3986 -116.9719 297° West 430 495 40,000  Level Seattle Center
Tue 07:37:08 PM 45.4531 -117.1242 297° West 432 497 40,000  Level Seattle Center
Tue 07:38:08 PM 45.5081 -117.2761 297° West 433 498 40,000  Level Seattle Center
Tue 07:39:09 PM 45.5636 -117.4358 296° West 433 498 40,000  Level Seattle Center
Tue 07:40:10 PM 45.6186 -117.5894 297° West 435 501 40,000  Level Seattle Center
Tue 07:41:11 PM 45.6717 -117.7436 296° West 434 499 40,000  Level Seattle Center
Tue 07:42:12 PM 45.7189 -117.8761 297° West 436 502 40,000  Level Seattle Center
Tue 07:43:12 PM 45.7833 -118.0636 296° West 437 503 40,000  Level Seattle Center
Tue 07:44:13 PM 45.8367 -118.2194 296° West 437 503 40,000  Level Seattle Center
Tue 07:45:14 PM 45.8911 -118.3764 297° West 440 506 40,000  Level Seattle Center
Tue 07:46:15 PM 45.9389 -118.5211 295° West 438 504 40,000  Level Seattle Center
Tue 07:47:15 PM 45.9925 -118.6786 296° West 439 505 40,000  Level Seattle Center
Tue 07:48:16 PM 46.0456 -118.8367 296° West 442 509 40,000  Level Seattle Center
Tue 07:49:17 PM 46.0983 -118.9956 296° West 441 507 40,000  Level Seattle Center
Tue 07:50:17 PM 46.1508 -119.1542 296° West 442 509 40,000  Level Seattle Center
Tue 07:51:18 PM 46.2042 -119.3147 296° West 446 513 40,000  Level Seattle Center
Tue 07:52:19 PM 46.2672 -119.5067 295° West 445 512 40,000  Level Seattle Center
Tue 07:53:20 PM 46.3192 -119.6667 295° West 441 507 40,000  Level Seattle Center
Tue 07:54:20 PM 46.3717 -119.8278 295° West 445 512 40,000  Level Seattle Center
Tue 07:55:21 PM 46.4236 -119.9886 295° West 444 511 40,000  Level Seattle Center
Tue 07:56:22 PM 46.4747 -120.1508 295° West 445 512 40,000 -694 Level Seattle Center
Tue 07:57:22 PM 46.5269 -120.3133 295° West 447 514 38,600 -1,884 Descending Seattle Center
Tue 07:58:23 PM 46.5811 -120.4747 296° West 449 517 36,200 -2,311 Descending Seattle Center
Tue 07:59:24 PM 46.6514 -120.6192 305° West 442 509 33,900 -2,311 Descending Seattle Center
Tue 08:00:25 PM 46.7208 -120.7653 305° West 440 506 31,500 -2,380 Descending Seattle Center
Tue 08:01:25 PM 46.7931 -120.9178 305° West 457 526 29,100 -2,430 Descending Seattle Center
Tue 08:02:26 PM 46.8667 -121.0753 304° West 469 540 26,600 -2,361 Descending Seattle Center
Tue 08:03:27 PM 46.9375 -121.2247 305° West 454 522 24,300 -2,231 Descending Seattle Center
Tue 08:04:27 PM 47.0022 -121.3631 304° West 417 480 22,100 -2,413 Descending Seattle Center
Tue 08:04:59 PM 47.0453 -121.4583 304° West 378 435 20,600 -2,164 Descending Seattle Center
Tue 08:05:28 PM 47.0664 -121.5033 305° West 387 445 19,900 -1,867 Descending Seattle Center
Tue 08:06:29 PM 47.1253 -121.6297 304° West 358 412 17,800 -1,909 Descending Seattle Center
Tue 08:07:18 PM 47.1689 -121.7253 304° West 327 376 16,400 -1,672 Descending Seattle Center
Tue 08:07:30 PM 47.1781 -121.7419 309° West 334 384 16,100 -1,574 Descending Seattle Center
Tue 08:08:19 PM 47.2222 -121.8361 305° West 328 377 14,800 -1,600 Descending Seattle Center
Tue 08:08:30 PM 47.2333 -121.8622 302° West 333 383 14,500 -1,000 Descending Seattle Center
Tue 08:09:19 PM 47.2700 -121.9436 304° West 316 364 13,800 -885 Descending Seattle Center
Tue 08:09:31 PM 47.2806 -121.9669 304° West 311 358 13,600 -885 Descending Seattle Center
Tue 08:10:20 PM 47.3136 -122.0436 302° West 288 331 12,900 -885 Descending Seattle Center
Tue 08:10:32 PM 47.3244 -122.0636 309° West 284 327 12,700 -885 Descending Seattle Center
Tue 08:11:21 PM 47.3583 -122.1400 303° West 283 326 12,000 -885 Descending Seattle Center
Tue 08:11:33 PM 47.3672 -122.1633 299° West 286 329 11,800 -1,100 Descending Seattle Center
Tue 08:12:21 PM 47.3894 -122.2439 292° West 275 316 10,900 -1,100 Descending Seattle Center
Tue 08:12:33 PM 47.3958 -122.2681 291° West 273 314 10,700 -885 Descending Seattle Center
Tue 08:13:22 PM 47.4156 -122.3472 290° West 259 298 10,000 -689 Descending Seattle Center
Tue 08:13:34 PM 47.4225 -122.3681 296° West 258 297 10,000 -700 Level Seattle Center
Tue 08:14:22 PM 47.4411 -122.4481 289° West 256 295 9,300 -787 Descending Seattle Center
Tue 08:14:35 PM 47.4469 -122.4683 293° West 258 297 9,200 -1,967 Descending Seattle Center
Tue 08:15:23 PM 47.4889 -122.5233 318° Northwest 269 310 7,300 -2,459 Descending Seattle Center
Tue 08:15:36 PM 47.5044 -122.5339 335° Northwest 265 305 6,700 -2,951 Descending Seattle Center
Tue 08:16:24 PM 47.5644 -122.5672 339° North 274 315 4,300 -2,459 Descending Seattle Center
Tue 08:16:37 PM 47.5742 -122.5725 340° North 269 310 4,200 -300 Descending Seattle Center
Tue 08:17:24 PM 47.6322 -122.5992 343° North 256 295 4,000 -200 Descending Seattle Center
Tue 08:17:37 PM 47.6453 -122.6019 352° North 243 280 4,000 -590 Level Seattle Center
Tue 08:18:25 PM 47.6872 -122.5789 20° North 237 273 3,400 -885 Descending Seattle Center
Tue 08:18:38 PM 47.6939 -122.5572 65° Northeast 242 278 3,100 -885 Descending Seattle Center
Tue 08:19:26 PM 47.6961 -122.4819 87° East 232 267 2,500 -787 Descending Seattle Center
Tue 08:19:39 PM 47.6908 -122.4656 116° Southeast 224 258 2,300 -300 Descending Seattle Center
Tue 08:20:26 PM 47.6650 -122.4200 130° Southeast 194 223 2,200 -98 Descending Seattle Center
Tue 08:20:40 PM 47.6550 -122.4108 148° Southeast 196 226 2,200 -197 Level Seattle Center
Tue 08:21:27 PM 47.6200 -122.3822 151° Southeast 183 211 2,000 -393 Descending Seattle Center
Tue 08:21:41 PM 47.6111 -122.3722 143° Southeast 184 212 1,800 -787 Descending Seattle Center
Tue 08:22:28 PM 47.5883 -122.3539 152° Southeast 121 139 1,200 -700 Descending Seattle Center
Tue 08:22:41 PM 47.5819 -122.3469 144° Southeast 123 142 1,100 -649 Descending Seattle Center
Tue 08:23:42 PM 47.5533 -122.3231 151° Southeast 126 145 400 -689 Descending Seattle Center
Tue 08:26:00 PM 47.5300 -122.3020 120° Southeast  Level Estimated
Tue 08:33:00 PM 47.5300 -122.3020 120° Southeast  Level Estimated
Tue 08:34:00 PM 47.5300 -122.3020 120° Southeast  Level Estimated
Tue 08:35:00 PM 47.5300 -122.3020 120° Southeast  Level Estimated
Tue 08:36:00 PM 47.5300 -122.3020 120° Southeast  Level Estimated
Tue 08:37:00 PM 47.5300 -122.3020 120° Southeast  Level Estimated
Tue 08:38:00 PM 47.5300 -122.3020 120° Southeast  Level Estimated

Login

Don't have an account? Register now (free) for customized features, flight alerts, and more!